Weather History for Cambridge, MD

Change the Weather History Date:

Monday, February 11, 2013

  Actual Average (KESN) Record (KESN)
Temperature  
Mean Temperature 46 °F -  
Max Temperature 55 °F 45 °F 68 °F (2009)
Min Temperature 37 °F 26 °F 7 °F (1962)
Degree Days  
Heating Degree Days 19    
Moisture  
Dew Point 46 °F    
Average Humidity 93    
Maximum Humidity 100    
Minimum Humidity 72    
Precipitation  
Precipitation 0.00 in - - ()
Sea Level Pressure  
Sea Level Pressure 29.96 in    
Wind  
Wind Speed 8 mph (South)    
Max Wind Speed 15 mph    
Max Gust Speed 24 mph    
Visibility 8 miles    
Events      
Averages and records for this station are not official NWS values.
T = Trace of Precipitation, MM = Missing Value Source: NWS Daily Summary

Daily Weather History Graph

Daily Weather History Graph

Search for Another Location

Airport:

Trip Planner

Search our weather history database for the weather conditions in past years. The results will help you decide how hot, cold, wet, or windy it might be!

Date:

Astronomy

Feb. 11, 2013 Rise Set
Actual Time 6:59 AM EST 5:37 PM EST
Civil Twilight 6:31 AM EST 6:05 PM EST
Nautical Twilight 6:00 AM EST 6:36 PM EST
Astronomical Twilight 5:29 AM EST 7:07 PM EST
Moon 7:24 AM EST (2/11) 7:30 PM EST (2/11)
Length of Visible Light 11h 33m
Length of Day
10h 38m
Waxing Crescent, 3% of the Moon is Illuminated
Feb 11
Waxing Crescent
Feb 17
First Quarter
Feb 25
Full
Mar 4
Last Quarter
Mar 11
New

Hourly Weather History & Observations

Time (EST) Temp. Windchill Dew Point Humidity Pressure Visibility Wind Dir Wind Speed Gust Speed Precip Events Conditions
12:00 AM 37.4 °F 30.8 °F 32.0 °F 81% 30.30 in 10.0 mi SSE 9.2 mph - N/A   Scattered Clouds
12:20 AM 37.4 °F 30.3 °F 33.8 °F 87% 30.28 in 10.0 mi SSE 10.4 mph - N/A   Overcast
12:40 AM 37.4 °F 30.3 °F 33.8 °F 87% 30.26 in 10.0 mi SSE 10.4 mph - N/A   Overcast
1:00 AM 41.0 °F 35.2 °F 35.6 °F 81% 30.25 in 10.0 mi SSE 9.2 mph - N/A   Overcast
1:20 AM 41.0 °F 35.2 °F 33.8 °F 76% 30.24 in 10.0 mi SSE 9.2 mph - N/A   Overcast
1:40 AM 41.0 °F 37.1 °F 33.8 °F 76% 30.24 in 10.0 mi South 5.8 mph - N/A   Overcast
2:00 AM 41.0 °F 37.1 °F 33.8 °F 76% 30.23 in 10.0 mi South 5.8 mph - N/A   Overcast
2:20 AM 41.0 °F 38.0 °F 35.6 °F 81% 30.22 in 10.0 mi SSE 4.6 mph - N/A   Overcast
2:40 AM 41.0 °F 37.1 °F 35.6 °F 81% 30.20 in 10.0 mi SSE 5.8 mph - N/A   Overcast
3:01 AM 41.0 °F 36.4 °F 35.6 °F 81% 30.18 in 10.0 mi SE 6.9 mph - N/A   Overcast
3:21 AM 41.0 °F 37.1 °F 35.6 °F 81% 30.17 in 10.0 mi SSE 5.8 mph - N/A   Overcast
3:41 AM 41.0 °F 36.4 °F 35.6 °F 81% 30.15 in 10.0 mi SE 6.9 mph - N/A   Overcast
4:01 AM 41.0 °F 38.0 °F 35.6 °F 81% 30.14 in 10.0 mi SSE 4.6 mph - N/A   Mostly Cloudy
4:21 AM 41.0 °F 36.4 °F 37.4 °F 87% 30.13 in 7.0 mi SSE 6.9 mph - N/A   Mostly Cloudy
4:41 AM 41.0 °F 38.0 °F 37.4 °F 87% 30.12 in 7.0 mi SSE 4.6 mph - N/A   Overcast
5:01 AM 41.0 °F 36.4 °F 37.4 °F 87% 30.10 in 10.0 mi SSE 6.9 mph - N/A   Overcast
5:21 AM 42.8 °F 36.6 °F 42.8 °F 100% 30.09 in 10.0 mi SSE 11.5 mph 16.1 mph N/A   Overcast
5:41 AM 44.6 °F 38.1 °F 42.8 °F 93% 30.07 in 7.0 mi SSE 13.8 mph 18.4 mph N/A   Overcast
6:01 AM 44.6 °F 39.2 °F 44.6 °F 100% 30.06 in 10.0 mi SSE 10.4 mph 17.3 mph N/A   Overcast
6:21 AM 46.4 °F 40.7 °F 46.4 °F 100% 30.07 in 7.0 mi South 12.7 mph 17.3 mph N/A   Overcast
6:41 AM 46.4 °F 40.1 °F 46.4 °F 100% 30.06 in 5.0 mi South 15.0 mph 21.9 mph N/A   Overcast
7:01 AM 46.4 °F 40.7 °F 46.4 °F 100% 30.06 in 5.0 mi South 12.7 mph 24.2 mph N/A   Overcast
7:21 AM 46.4 °F 40.4 °F 46.4 °F 100% 30.06 in 4.0 mi South 13.8 mph 19.6 mph N/A   Overcast
9:21 AM 50.0 °F - 50.0 °F 100% 30.02 in 4.0 mi South 10.4 mph 17.3 mph N/A   Overcast
9:41 AM 50.0 °F - 50.0 °F 100% 30.01 in 10.0 mi South 13.8 mph 20.7 mph N/A   Overcast
10:01 AM 50.0 °F - 50.0 °F 100% 30.00 in 7.0 mi South 13.8 mph 21.9 mph N/A   Overcast
10:21 AM 50.0 °F - 50.0 °F 100% 29.99 in 7.0 mi South 11.5 mph 19.6 mph N/A   Overcast
11:01 AM 50.0 °F - 50.0 °F 100% 29.98 in 4.0 mi South 9.2 mph - N/A   Overcast
11:21 AM 50.0 °F - 50.0 °F 100% 29.96 in 5.0 mi South 5.8 mph - N/A   Overcast
11:42 AM 50.0 °F - 50.0 °F 100% 29.94 in 2.5 mi SSE 4.6 mph - N/A   Overcast
12:02 PM 50.0 °F - 50.0 °F 100% 29.93 in 1.2 mi South 6.9 mph - N/A   Overcast
12:22 PM 50.0 °F - 50.0 °F 100% 29.92 in 1.2 mi South 6.9 mph - N/A   Overcast
12:42 PM 50.0 °F - 50.0 °F 100% 29.90 in 1.5 mi South 9.2 mph - N/A   Overcast
1:02 PM 50.0 °F - 50.0 °F 100% 29.88 in 1.8 mi SSE 8.1 mph - N/A   Overcast
1:22 PM 51.8 °F - 51.8 °F 100% 29.87 in 2.5 mi South 6.9 mph - N/A   Overcast
1:42 PM 51.8 °F - 51.8 °F 100% 29.86 in 2.5 mi SSE 3.5 mph - N/A   Overcast
2:02 PM 51.8 °F - 51.8 °F 100% 29.85 in 3.0 mi SSE 4.6 mph - N/A   Overcast
2:22 PM 51.8 °F - 51.8 °F 100% 29.84 in 4.0 mi South 8.1 mph - N/A   Overcast
3:02 PM 51.8 °F - 51.8 °F 100% 29.82 in 7.0 mi SSE 6.9 mph - N/A   Overcast
3:22 PM 51.8 °F - 51.8 °F 100% 29.80 in 5.0 mi SE 9.2 mph - N/A   Overcast
3:42 PM 51.8 °F - 51.8 °F 100% 29.81 in 7.0 mi SSE 8.1 mph - N/A   Overcast
4:02 PM 55.4 °F - 55.4 °F 100% 29.80 in 10.0 mi South 6.9 mph - N/A   Mostly Cloudy
4:22 PM 53.6 °F - 53.6 °F 100% 29.79 in 10.0 mi SSE 4.6 mph - N/A   Mostly Cloudy
4:42 PM 51.8 °F - 51.8 °F 100% 29.78 in 10.0 mi SSE 5.8 mph - N/A   Scattered Clouds
6:02 PM 50.0 °F - 50.0 °F 100% 29.76 in 7.0 mi SSE 6.9 mph - N/A   Scattered Clouds
6:22 PM 50.0 °F - 50.0 °F 100% 29.76 in 7.0 mi SSE 4.6 mph - N/A   Clear
6:42 PM 50.0 °F - 50.0 °F 100% 29.75 in 7.0 mi South 4.6 mph - N/A   Clear
7:02 PM 50.0 °F - 50.0 °F 100% 29.75 in 10.0 mi South 4.6 mph - N/A   Clear
7:22 PM 50.0 °F - 50.0 °F 100% 29.74 in 10.0 mi SSE 4.6 mph - N/A   Clear
7:42 PM 50.0 °F - 50.0 °F 100% 29.74 in 10.0 mi South 6.9 mph - N/A   Clear
8:02 PM 55.4 °F - 55.4 °F 100% 29.73 in 10.0 mi SSW 5.8 mph - N/A   Clear
8:23 PM 55.4 °F - 53.6 °F 94% 29.73 in 10.0 mi SSW 9.2 mph - N/A   Clear
9:03 PM 55.4 °F - 51.8 °F 88% 29.74 in 10.0 mi SW 6.9 mph - N/A   Clear
9:23 PM 55.4 °F - 51.8 °F 88% 29.74 in 10.0 mi SW 4.6 mph - N/A   Clear
10:03 PM 55.4 °F - 51.8 °F 88% 29.75 in 10.0 mi SW 6.9 mph - N/A   Clear
10:23 PM 55.4 °F - 51.8 °F 88% 29.75 in 10.0 mi WSW 4.6 mph - N/A   Clear
11:03 PM 55.4 °F - 48.2 °F 77% 29.76 in 10.0 mi WSW 10.4 mph 17.3 mph N/A   Clear
11:23 PM 55.4 °F - 46.4 °F 72% 29.77 in 10.0 mi West 6.9 mph - N/A   Clear
11:43 PM 55.4 °F - 48.2 °F 77% 29.77 in 10.0 mi West 6.9 mph - N/A   Clear